Time;durP1;ratioP1;P1;durP2;ratioP2;P2;SDS_P1;SDS_P2;PMS_P1;PMS_P2;Temp;Humidity;BMP_temperature;BMP_pressure;BME280_temperature;BME280_humidity;BME280_pressure;Samples;Min_cycle;Max_cycle;Signal;HPM_P1;HPM_P2
2021/10/02 00:41:21;;;;;;;18.20;13.55;;;;;;;;;;4883259;29;20036;-80
2021/10/02 00:46:35;;;;;;;19.02;12.60;;;;;;;;;;4866947;29;20091;-80
2021/10/02 00:49:02;;;;;;;16.77;12.02;;;;;;;;;;4882337;29;20063;-80
2021/10/02 00:51:31;;;;;;;16.60;12.27;;;;;;;;;;4898074;29;20039;-79
2021/10/02 00:53:57;;;;;;;19.77;12.95;;;;;;;;;;4887192;29;20184;-79
2021/10/02 00:56:25;;;;;;;;;;;;;;;;;;4887358;29;20492;-79
2021/10/02 00:58:51;;;;;;;14.75;10.25;;;;;;;;;;4895630;28;20017;-79
2021/10/02 01:01:36;;;;;;;15.88;11.48;;;;;;;;;;4908683;28;20036;-79
2021/10/02 01:04:15;;;;;;;15.52;11.15;;;;;;;;;;4888303;29;20114;-79
2021/10/02 01:07:02;;;;;;;17.23;12.52;;;;;;;;;;4876123;28;20028;-79
2021/10/02 01:09:41;;;;;;;15.20;12.15;;;;;;;;;;4896429;29;20027;-79
2021/10/02 01:12:26;;;;;;;17.17;12.68;;;;;;;;;;4904596;29;20040;-79
2021/10/02 01:15:03;;;;;;;16.52;11.73;;;;;;;;;;4901603;29;20062;-78
2021/10/02 01:17:35;;;;;;;15.57;10.82;;;;;;;;;;4928890;28;20037;-78
2021/10/02 01:20:10;;;;;;;18.33;13.00;;;;;;;;;;4980391;28;20038;-78
2021/10/02 01:22:52;;;;;;;17.48;13.05;;;;;;;;;;4960275;28;20034;-78
2021/10/02 01:25:22;;;;;;;15.60;11.82;;;;;;;;;;4963311;28;20066;-79
2021/10/02 01:28:02;;;;;;;20.67;12.95;;;;;;;;;;4976852;28;21417;-79
2021/10/02 01:33:45;;;;;;;16.35;12.20;;;;;;;;;;4983112;28;20049;-79
2021/10/02 01:36:46;;;;;;;16.95;11.48;;;;;;;;;;4944433;28;20088;-80
2021/10/02 01:47:48;;;;;;;15.55;11.43;;;;;;;;;;4978910;28;20525;-80
2021/10/02 01:50:17;;;;;;;16.65;12.05;;;;;;;;;;4965814;28;20030;-80
2021/10/02 01:52:46;;;;;;;14.73;10.05;;;;;;;;;;4959650;28;20092;-80
2021/10/02 01:55:14;;;;;;;16.35;11.25;;;;;;;;;;4972757;28;20042;-80
2021/10/02 01:57:46;;;;;;;15.55;11.05;;;;;;;;;;4974862;28;20042;-80
2021/10/02 02:00:15;;;;;;;15.73;10.75;;;;;;;;;;4981972;28;20674;-80
2021/10/02 02:02:55;;;;;;;16.35;10.93;;;;;;;;;;4963477;28;20041;-80
2021/10/02 02:05:28;;;;;;;19.85;12.82;;;;;;;;;;4979082;28;22093;-80
2021/10/02 02:08:06;;;;;;;15.63;11.73;;;;;;;;;;4965966;28;20038;-81
2021/10/02 02:10:35;;;;;;;14.85;11.00;;;;;;;;;;4959934;28;20132;-81
2021/10/02 02:13:03;;;;;;;20.00;12.55;;;;;;;;;;4960022;28;20030;-82
2021/10/02 02:15:31;;;;;;;15.90;10.90;;;;;;;;;;4964671;28;20038;-82
2021/10/02 02:18:08;;;;;;;20.90;13.63;;;;;;;;;;4941358;28;20042;-81
2021/10/02 02:20:38;;;;;;;16.10;10.95;;;;;;;;;;4975617;28;20041;-79
2021/10/02 02:23:07;;;;;;;21.13;13.98;;;;;;;;;;4964252;28;20442;-79
2021/10/02 02:25:34;;;;;;;19.13;11.70;;;;;;;;;;4972090;28;20030;-81
2021/10/02 02:28:06;;;;;;;15.95;12.23;;;;;;;;;;4986294;28;20034;-80
2021/10/02 02:30:33;;;;;;;16.38;11.48;;;;;;;;;;4977151;28;20107;-82
2021/10/02 02:33:03;;;;;;;19.20;13.40;;;;;;;;;;4973525;28;20045;-81
2021/10/02 02:35:30;;;;;;;15.38;11.43;;;;;;;;;;4981162;28;20041;-81
2021/10/02 02:37:59;;;;;;;15.50;11.68;;;;;;;;;;4963421;28;20418;-81
2021/10/02 02:40:30;;;;;;;17.67;12.40;;;;;;;;;;4951071;28;20034;-81
2021/10/02 02:42:57;;;;;;;15.05;11.43;;;;;;;;;;4981595;28;20060;-81
2021/10/02 02:45:24;;;;;;;15.85;11.48;;;;;;;;;;4970950;28;20062;-81
2021/10/02 02:48:08;;;;;;;16.70;11.63;;;;;;;;;;4980806;28;20054;-80
2021/10/02 02:50:54;;;;;;;17.13;11.30;;;;;;;;;;4960359;28;20049;-79
2021/10/02 02:53:43;;;;;;;16.25;11.13;;;;;;;;;;4983882;28;20057;-79
2021/10/02 02:56:32;;;;;;;16.65;11.93;;;;;;;;;;4977470;28;20045;-79
2021/10/02 02:59:01;;;;;;;16.30;10.55;;;;;;;;;;4957906;28;20047;-81
2021/10/02 03:01:31;;;;;;;14.90;9.85;;;;;;;;;;4944574;28;20058;-81
2021/10/02 03:04:00;;;;;;;16.00;10.80;;;;;;;;;;4930591;28;20038;-82
2021/10/02 03:06:29;;;;;;;17.70;11.63;;;;;;;;;;4960385;28;20061;-81
2021/10/02 03:08:58;;;;;;;15.20;10.93;;;;;;;;;;4960743;28;20037;-82
2021/10/02 03:11:29;;;;;;;14.63;9.65;;;;;;;;;;4960138;28;20632;-79
2021/10/02 03:13:57;;;;;;;15.90;10.80;;;;;;;;;;4977816;28;20073;-79
2021/10/02 03:16:30;;;;;;;16.02;11.32;;;;;;;;;;4987366;28;20128;-82
2021/10/02 03:19:00;;;;;;;15.60;9.68;;;;;;;;;;4972921;28;20043;-78
2021/10/02 03:21:30;;;;;;;15.57;11.00;;;;;;;;;;4957679;28;20109;-79
2021/10/02 03:23:57;;;;;;;16.33;11.13;;;;;;;;;;4952653;28;20034;-82
2021/10/02 03:26:24;;;;;;;17.45;12.40;;;;;;;;;;4938346;28;20050;-81
2021/10/02 03:28:51;;;;;;;14.40;9.82;;;;;;;;;;4960641;28;20871;-81
2021/10/02 03:31:19;;;;;;;16.50;11.93;;;;;;;;;;4948849;28;20426;-80
2021/10/02 03:33:47;;;;;;;14.45;9.93;;;;;;;;;;4960008;28;20034;-80
2021/10/02 03:36:15;;;;;;;15.52;11.23;;;;;;;;;;4937867;28;20507;-80
2021/10/02 03:38:45;;;;;;;14.90;10.63;;;;;;;;;;4952929;28;20049;-81
2021/10/02 03:41:14;;;;;;;13.27;9.00;;;;;;;;;;4959785;28;20039;-79
2021/10/02 03:43:42;;;;;;;13.60;9.40;;;;;;;;;;4979176;28;20034;-79
2021/10/02 03:46:09;;;;;;;13.50;9.43;;;;;;;;;;4950814;28;20044;-82
2021/10/02 03:48:37;;;;;;;12.90;9.13;;;;;;;;;;4967140;28;20030;-82
2021/10/02 03:51:05;;;;;;;15.30;10.25;;;;;;;;;;4968926;28;20034;-80
2021/10/02 03:53:33;;;;;;;15.98;10.18;;;;;;;;;;4962243;28;20068;-82
2021/10/02 03:56:04;;;;;;;14.88;9.43;;;;;;;;;;4968369;28;20076;-81
2021/10/02 03:58:34;;;;;;;14.93;10.23;;;;;;;;;;4976877;28;20037;-80
2021/10/02 04:01:00;;;;;;;16.33;10.88;;;;;;;;;;4968442;28;20045;-82
2021/10/02 04:03:28;;;;;;;16.42;10.43;;;;;;;;;;4970563;28;20124;-82
2021/10/02 04:05:55;;;;;;;15.48;9.77;;;;;;;;;;4965235;28;20029;-82
2021/10/02 04:08:22;;;;;;;18.10;10.60;;;;;;;;;;4971001;28;20033;-82
2021/10/02 04:10:52;;;;;;;15.63;10.90;;;;;;;;;;4975472;28;20719;-81
2021/10/02 04:13:20;;;;;;;14.65;10.40;;;;;;;;;;4965788;28;20930;-82
2021/10/02 04:15:48;;;;;;;16.00;10.43;;;;;;;;;;4964604;28;20057;-80
2021/10/02 04:18:15;;;;;;;13.75;10.15;;;;;;;;;;4982853;28;20042;-79
2021/10/02 04:20:43;;;;;;;15.65;11.27;;;;;;;;;;4966102;28;20073;-81
2021/10/02 04:23:10;;;;;;;17.23;11.48;;;;;;;;;;4978598;28;20112;-81
2021/10/02 04:25:37;;;;;;;15.45;10.63;;;;;;;;;;4982539;28;20529;-82
2021/10/02 04:28:04;;;;;;;16.95;11.18;;;;;;;;;;4981124;28;20120;-79
2021/10/02 04:30:33;;;;;;;14.77;10.68;;;;;;;;;;4963357;28;20068;-81
2021/10/02 04:32:59;;;;;;;15.45;10.40;;;;;;;;;;4969383;28;20030;-80
2021/10/02 04:35:28;;;;;;;17.02;11.68;;;;;;;;;;4979953;28;20050;-80
2021/10/02 04:37:57;;;;;;;15.77;10.27;;;;;;;;;;4981581;28;20038;-80
2021/10/02 04:40:26;;;;;;;18.40;11.70;;;;;;;;;;4982004;28;20042;-80
2021/10/02 04:42:54;;;;;;;17.27;12.00;;;;;;;;;;4977004;28;20053;-80
2021/10/02 04:45:21;;;;;;;16.08;11.57;;;;;;;;;;4983987;28;20025;-80
2021/10/02 04:47:50;;;;;;;16.08;11.05;;;;;;;;;;4972615;28;20042;-80
2021/10/02 04:50:19;;;;;;;17.15;11.25;;;;;;;;;;4982719;28;20070;-80
2021/10/02 04:52:45;;;;;;;18.02;11.93;;;;;;;;;;4958104;28;20111;-80
2021/10/02 04:55:14;;;;;;;15.80;11.45;;;;;;;;;;4976415;28;20049;-80
2021/10/02 04:57:41;;;;;;;18.13;11.95;;;;;;;;;;4988765;28;20469;-80
2021/10/02 05:00:10;;;;;;;16.98;10.90;;;;;;;;;;4961975;28;20035;-80
2021/10/02 05:02:40;;;;;;;18.35;12.27;;;;;;;;;;4958328;28;20042;-79
2021/10/02 05:05:12;;;;;;;14.98;11.15;;;;;;;;;;4945796;28;20105;-80
2021/10/02 05:07:43;;;;;;;17.60;12.70;;;;;;;;;;4957140;28;20105;-80
2021/10/02 05:10:11;;;;;;;21.50;12.75;;;;;;;;;;4962862;28;20031;-79
2021/10/02 05:12:37;;;;;;;16.00;11.52;;;;;;;;;;4928205;28;20169;-80
2021/10/02 05:15:06;;;;;;;16.67;11.93;;;;;;;;;;4957310;28;20057;-82
2021/10/02 05:17:34;;;;;;;20.65;12.32;;;;;;;;;;4940309;28;20693;-80
2021/10/02 05:20:03;;;;;;;18.33;12.68;;;;;;;;;;4940420;28;20740;-79
2021/10/02 05:22:51;;;;;;;18.27;13.02;;;;;;;;;;4954020;28;20104;-80
2021/10/02 05:25:18;;;;;;;17.42;12.32;;;;;;;;;;4916425;28;20042;-80
2021/10/02 05:27:51;;;;;;;17.77;10.98;;;;;;;;;;4915155;28;20047;-80
2021/10/02 05:30:20;;;;;;;15.70;11.45;;;;;;;;;;4918788;28;20031;-79
2021/10/02 05:32:49;;;;;;;15.10;10.85;;;;;;;;;;4916406;28;20043;-80
2021/10/02 05:35:19;;;;;;;17.05;10.90;;;;;;;;;;4905542;28;20039;-80
2021/10/02 05:37:47;;;;;;;15.38;10.80;;;;;;;;;;4913301;28;20141;-80
2021/10/02 05:40:15;;;;;;;16.92;11.32;;;;;;;;;;4914090;28;20036;-80
2021/10/02 05:42:45;;;;;;;16.15;11.95;;;;;;;;;;4913702;28;20042;-80
2021/10/02 05:45:13;;;;;;;16.23;11.65;;;;;;;;;;4908918;28;20066;-80
2021/10/02 05:47:42;;;;;;;17.40;11.90;;;;;;;;;;4899258;28;20051;-80
2021/10/02 05:50:09;;;;;;;17.10;11.82;;;;;;;;;;4917736;28;20039;-80
2021/10/02 05:52:38;;;;;;;19.73;12.18;;;;;;;;;;4902006;28;20054;-82
2021/10/02 05:55:07;;;;;;;16.73;11.85;;;;;;;;;;4913158;28;20047;-81
2021/10/02 05:57:34;;;;;;;21.70;14.23;;;;;;;;;;4902213;28;20035;-81
2021/10/02 06:00:05;;;;;;;18.50;12.20;;;;;;;;;;4929878;28;20043;-82
2021/10/02 06:02:34;;;;;;;18.38;11.88;;;;;;;;;;4936801;28;20038;-81
2021/10/02 06:05:01;;;;;;;19.40;13.88;;;;;;;;;;4941546;28;20464;-82
2021/10/02 06:07:42;;;;;;;17.75;12.52;;;;;;;;;;4940250;28;20039;-81
2021/10/02 06:10:11;;;;;;;16.75;11.20;;;;;;;;;;4977376;28;20041;-81
2021/10/02 06:12:38;;;;;;;17.95;11.98;;;;;;;;;;4977348;28;20026;-82
2021/10/02 06:15:06;;;;;;;17.50;12.65;;;;;;;;;;4982398;28;20057;-81
2021/10/02 06:17:35;;;;;;;15.02;11.52;;;;;;;;;;4964950;28;20046;-82
2021/10/02 06:20:07;;;;;;;17.98;13.05;;;;;;;;;;4963074;28;20052;-81
2021/10/02 06:22:36;;;;;;;17.42;12.32;;;;;;;;;;4976274;28;20396;-82
2021/10/02 06:25:07;;;;;;;18.73;13.73;;;;;;;;;;4965228;28;20046;-82
2021/10/02 06:27:38;;;;;;;22.45;13.70;;;;;;;;;;4957810;28;20084;-81
2021/10/02 06:30:06;;;;;;;18.83;11.38;;;;;;;;;;4971779;28;20040;-82
2021/10/02 06:32:33;;;;;;;24.05;14.57;;;;;;;;;;4974834;28;20038;-81
2021/10/02 06:35:04;;;;;;;22.33;13.90;;;;;;;;;;4982555;28;20038;-81
2021/10/02 06:37:33;;;;;;;20.45;12.57;;;;;;;;;;4976808;28;20041;-81
2021/10/02 06:40:00;;;;;;;23.77;13.90;;;;;;;;;;4912629;28;20111;-81
2021/10/02 06:42:28;;;;;;;23.38;13.65;;;;;;;;;;4917992;28;20035;-81
2021/10/02 06:44:54;;;;;;;23.40;14.02;;;;;;;;;;4902358;28;20039;-81
2021/10/02 06:47:26;;;;;;;17.88;11.88;;;;;;;;;;4909026;28;20039;-83
2021/10/02 06:50:00;;;;;;;20.80;13.02;;;;;;;;;;4916118;28;20044;-82
2021/10/02 06:52:28;;;;;;;21.95;12.40;;;;;;;;;;4917601;28;20051;-83
2021/10/02 06:54:56;;;;;;;25.85;14.70;;;;;;;;;;4889597;28;20054;-83
2021/10/02 06:57:29;;;;;;;21.40;13.25;;;;;;;;;;4888316;28;20062;-84
2021/10/02 07:00:01;;;;;;;22.80;13.77;;;;;;;;;;4885594;28;20127;-83
2021/10/02 07:02:32;;;;;;;22.15;14.13;;;;;;;;;;4878408;28;20043;-80
2021/10/02 07:04:58;;;;;;;24.48;14.02;;;;;;;;;;4889056;29;20741;-83
2021/10/02 07:07:26;;;;;;;22.48;13.88;;;;;;;;;;4907274;29;20122;-82
2021/10/02 07:09:55;;;;;;;21.40;11.23;;;;;;;;;;4890243;28;20043;-82
2021/10/02 07:12:21;;;;;;;17.80;12.30;;;;;;;;;;4879230;29;20557;-82
2021/10/02 07:14:48;;;;;;;18.88;12.05;;;;;;;;;;4868292;29;20044;-83
2021/10/02 07:17:19;;;;;;;22.08;13.13;;;;;;;;;;4870634;29;20044;-82
2021/10/02 07:19:47;;;;;;;20.70;11.50;;;;;;;;;;4869499;29;20068;-83
2021/10/02 07:22:14;;;;;;;18.90;12.93;;;;;;;;;;4877033;29;20133;-82
2021/10/02 07:24:42;;;;;;;22.13;13.07;;;;;;;;;;4884048;29;20163;-81
2021/10/02 07:27:14;;;;;;;18.45;12.00;;;;;;;;;;4887220;29;20862;-82
2021/10/02 07:29:44;;;;;;;19.75;12.25;;;;;;;;;;4841447;29;20090;-84
2021/10/02 07:32:11;;;;;;;21.30;12.73;;;;;;;;;;4909106;29;20040;-82
2021/10/02 07:34:37;;;;;;;21.67;12.85;;;;;;;;;;4903171;29;20052;-83
2021/10/02 07:37:06;;;;;;;18.02;12.85;;;;;;;;;;4892973;29;20044;-82
2021/10/02 07:39:34;;;;;;;16.67;11.85;;;;;;;;;;4887197;29;20044;-81
2021/10/02 07:42:02;;;;;;;17.30;12.48;;;;;;;;;;4886288;29;20032;-83
2021/10/02 07:44:34;;;;;;;19.98;13.07;;;;;;;;;;4886697;29;20059;-84
2021/10/02 07:47:04;;;;;;;16.48;11.77;;;;;;;;;;4887355;29;20047;-83
2021/10/02 07:49:35;;;;;;;19.17;11.93;;;;;;;;;;4874572;29;20117;-83
2021/10/02 07:52:04;;;;;;;15.77;11.32;;;;;;;;;;4885624;29;20067;-84
2021/10/02 07:54:33;;;;;;;15.43;10.52;;;;;;;;;;4885505;29;20047;-82
2021/10/02 07:57:01;;;;;;;16.20;9.40;;;;;;;;;;4889042;29;20024;-81
2021/10/02 07:59:31;;;;;;;16.58;10.75;;;;;;;;;;4888885;29;20218;-83
2021/10/02 08:01:59;;;;;;;16.30;10.30;;;;;;;;;;4877908;28;20058;-81
2021/10/02 08:04:29;;;;;;;16.73;10.57;;;;;;;;;;4915395;28;20417;-82
2021/10/02 08:09:55;;;;;;;15.77;11.05;;;;;;;;;;4920456;28;20042;-82
2021/10/02 08:12:26;;;;;;;14.93;9.48;;;;;;;;;;4926521;28;20047;-83
2021/10/02 08:14:52;;;;;;;16.58;10.07;;;;;;;;;;4947026;28;20246;-82
2021/10/02 08:17:23;;;;;;;15.93;9.55;;;;;;;;;;4945899;28;20049;-82
2021/10/02 08:19:55;;;;;;;14.65;9.57;;;;;;;;;;4940894;28;21426;-82
2021/10/02 08:22:27;;;;;;;18.63;10.85;;;;;;;;;;4952535;28;20073;-82
2021/10/02 08:24:55;;;;;;;14.30;9.32;;;;;;;;;;4939175;28;20034;-82
2021/10/02 08:27:22;;;;;;;15.68;9.85;;;;;;;;;;4929888;28;20066;-83
2021/10/02 08:29:52;;;;;;;14.95;8.80;;;;;;;;;;4938007;28;20689;-83
2021/10/02 08:32:21;;;;;;;15.70;10.18;;;;;;;;;;4923970;28;20567;-82
2021/10/02 08:34:49;;;;;;;14.05;9.52;;;;;;;;;;4943363;28;20042;-82
2021/10/02 08:37:20;;;;;;;15.60;9.77;;;;;;;;;;4928274;28;20126;-82
2021/10/02 08:39:48;;;;;;;16.05;10.00;;;;;;;;;;4926538;28;20043;-82
2021/10/02 08:42:17;;;;;;;20.38;10.52;;;;;;;;;;4956228;28;20046;-82
2021/10/02 08:44:46;;;;;;;17.33;10.82;;;;;;;;;;4936502;28;20073;-82
2021/10/02 08:47:17;;;;;;;16.95;9.93;;;;;;;;;;4945034;28;20043;-82
2021/10/02 08:49:46;;;;;;;17.58;10.52;;;;;;;;;;4932078;28;20058;-83
2021/10/02 08:52:16;;;;;;;15.07;9.68;;;;;;;;;;4941893;28;20133;-83
2021/10/02 08:54:46;;;;;;;15.82;9.32;;;;;;;;;;4934455;28;20063;-83
2021/10/02 08:57:16;;;;;;;15.75;9.23;;;;;;;;;;4918489;28;20039;-82
2021/10/02 08:59:44;;;;;;;15.98;9.20;;;;;;;;;;4938692;28;20038;-83
2021/10/02 09:02:12;;;;;;;14.30;7.95;;;;;;;;;;4901837;28;20044;-83
2021/10/02 09:04:40;;;;;;;16.90;8.55;;;;;;;;;;4914448;28;20134;-83
2021/10/02 09:07:10;;;;;;;13.45;7.68;;;;;;;;;;4918176;28;20049;-83
2021/10/02 09:09:39;;;;;;;13.75;8.60;;;;;;;;;;4883858;28;20766;-83
2021/10/02 09:12:12;;;;;;;10.88;7.35;;;;;;;;;;4950229;28;20043;-83
2021/10/02 09:14:43;;;;;;;13.50;8.77;;;;;;;;;;4920097;28;20069;-82
2021/10/02 09:17:11;;;;;;;15.63;10.32;;;;;;;;;;4938932;28;20062;-82
2021/10/02 09:19:40;;;;;;;14.75;8.50;;;;;;;;;;4940917;28;20034;-82
2021/10/02 09:22:10;;;;;;;12.73;7.90;;;;;;;;;;4953454;28;20045;-82
2021/10/02 09:24:39;;;;;;;13.43;8.30;;;;;;;;;;4959956;28;20026;-82
2021/10/02 09:27:18;;;;;;;11.68;7.20;;;;;;;;;;4930718;28;20511;-82
2021/10/02 09:29:50;;;;;;;13.20;6.50;;;;;;;;;;4951721;28;20049;-83
2021/10/02 09:32:21;;;;;;;16.67;7.47;;;;;;;;;;4954966;28;20043;-83
2021/10/02 09:34:48;;;;;;;15.10;7.03;;;;;;;;;;4943445;28;20045;-82
2021/10/02 09:37:34;;;;;;;14.38;6.70;;;;;;;;;;4952676;28;20034;-82
2021/10/02 09:40:05;;;;;;;11.10;6.50;;;;;;;;;;4955292;28;20034;-82
2021/10/02 09:42:43;;;;;;;11.88;6.18;;;;;;;;;;4949243;28;20041;-82
2021/10/02 09:45:21;;;;;;;10.30;5.63;;;;;;;;;;4932656;28;20049;-82
2021/10/02 09:47:54;;;;;;;11.23;5.72;;;;;;;;;;4949064;28;20051;-82
2021/10/02 09:50:27;;;;;;;9.57;4.82;;;;;;;;;;4947042;28;20034;-82
2021/10/02 09:52:55;;;;;;;10.50;5.25;;;;;;;;;;4944431;28;20049;-83
2021/10/02 09:55:33;;;;;;;10.07;5.45;;;;;;;;;;4948098;28;20035;-81
2021/10/02 09:58:17;;;;;;;10.30;5.28;;;;;;;;;;4966359;28;20042;-84
2021/10/02 10:00:50;;;;;;;9.10;4.63;;;;;;;;;;4957637;28;20057;-81
2021/10/02 10:03:26;;;;;;;10.82;5.35;;;;;;;;;;4951528;28;20038;-82
2021/10/02 10:05:55;;;;;;;8.95;4.45;;;;;;;;;;4940460;28;20114;-83
2021/10/02 10:08:29;;;;;;;8.90;4.40;;;;;;;;;;4942690;28;20052;-83
2021/10/02 10:11:08;;;;;;;9.93;5.55;;;;;;;;;;4949309;28;20031;-82
2021/10/02 10:13:36;;;;;;;9.23;4.60;;;;;;;;;;4959371;28;20034;-82
2021/10/02 10:16:09;;;;;;;9.02;4.30;;;;;;;;;;4965072;28;20065;-83
2021/10/02 10:18:41;;;;;;;8.80;3.78;;;;;;;;;;4956612;28;20507;-82
2021/10/02 10:21:10;;;;;;;8.57;4.28;;;;;;;;;;4936743;28;20503;-82
2021/10/02 10:23:49;;;;;;;9.85;4.43;;;;;;;;;;4947168;28;20766;-82
2021/10/02 10:26:19;;;;;;;10.40;4.40;;;;;;;;;;4912499;28;20598;-83
2021/10/02 10:28:48;;;;;;;8.40;4.40;;;;;;;;;;4942900;28;20568;-83
2021/10/02 10:31:26;;;;;;;8.73;3.67;;;;;;;;;;4969002;28;20053;-83
2021/10/02 10:33:55;;;;;;;9.10;4.03;;;;;;;;;;4938871;28;20769;-83
2021/10/02 10:36:27;;;;;;;8.40;3.50;;;;;;;;;;4953645;28;20046;-83
2021/10/02 10:39:03;;;;;;;8.30;3.90;;;;;;;;;;4938283;28;20049;-83
2021/10/02 10:41:31;;;;;;;8.65;4.05;;;;;;;;;;4947768;28;20109;-83
2021/10/02 10:44:01;;;;;;;8.75;3.83;;;;;;;;;;4951235;28;20125;-83
2021/10/02 10:46:29;;;;;;;8.13;3.88;;;;;;;;;;4950181;28;20045;-82
2021/10/02 10:48:58;;;;;;;8.30;3.85;;;;;;;;;;4964367;28;20850;-82
2021/10/02 10:51:30;;;;;;;10.07;4.10;;;;;;;;;;4968781;28;21190;-83
2021/10/02 10:53:59;;;;;;;10.15;3.75;;;;;;;;;;4947605;28;20140;-81
2021/10/02 10:56:44;;;;;;;8.57;4.10;;;;;;;;;;4961628;28;20104;-84
2021/10/02 10:59:18;;;;;;;10.38;6.00;;;;;;;;;;4936983;28;20291;-82
2021/10/02 11:01:49;;;;;;;11.70;5.50;;;;;;;;;;4949640;28;20050;-82
2021/10/02 11:04:38;;;;;;;9.13;3.97;;;;;;;;;;4980713;28;20066;-82
2021/10/02 11:07:42;;;;;;;9.45;5.03;;;;;;;;;;4938759;28;20030;-81
2021/10/02 11:10:30;;;;;;;10.32;4.00;;;;;;;;;;4929761;28;20382;-81
2021/10/02 11:12:58;;;;;;;8.90;4.18;;;;;;;;;;4938308;28;20122;-82
2021/10/02 11:15:41;;;;;;;8.85;3.85;;;;;;;;;;4939589;28;20082;-80
2021/10/02 11:18:30;;;;;;;9.20;4.00;;;;;;;;;;4916389;28;20149;-80
2021/10/02 11:21:05;;;;;;;7.82;3.40;;;;;;;;;;4914542;28;20049;-80
2021/10/02 11:23:50;;;;;;;9.73;3.97;;;;;;;;;;4921359;28;20023;-83
2021/10/02 11:26:18;;;;;;;;;;;;;;;;;;4926167;28;20049;-82
2021/10/02 11:28:51;;;;;;;9.60;3.83;;;;;;;;;;4922918;28;19950;-81
2021/10/02 11:31:25;;;;;;;10.23;4.07;;;;;;;;;;4908382;28;20034;-81
2021/10/02 11:33:58;;;;;;;9.50;4.80;;;;;;;;;;4940238;28;20042;-81
2021/10/02 11:36:42;;;;;;;9.73;4.28;;;;;;;;;;4930273;28;20042;-81
2021/10/02 11:39:29;;;;;;;7.80;3.90;;;;;;;;;;4959591;28;20119;-81
2021/10/02 11:42:01;;;;;;;8.63;3.60;;;;;;;;;;4953643;28;21032;-81
2021/10/02 11:44:48;;;;;;;9.90;3.47;;;;;;;;;;4965145;28;20044;-82
2021/10/02 11:47:32;;;;;;;9.10;4.32;;;;;;;;;;4966095;28;20042;-82
2021/10/02 11:50:16;;;;;;;9.15;3.70;;;;;;;;;;4977233;28;20041;-82
2021/10/02 11:53:16;;;;;;;9.02;4.20;;;;;;;;;;4961260;28;20064;-83
2021/10/02 11:55:49;;;;;;;8.82;4.05;;;;;;;;;;4979881;28;20042;-82
2021/10/02 11:58:17;;;;;;;8.40;3.70;;;;;;;;;;4983877;28;20042;-81
2021/10/02 12:00:59;;;;;;;7.63;3.72;;;;;;;;;;4956309;28;20557;-80
2021/10/02 12:03:43;;;;;;;10.70;4.43;;;;;;;;;;4980739;28;20046;-82
2021/10/02 12:09:23;;;;;;;7.40;3.35;;;;;;;;;;4975736;28;20069;-82
2021/10/02 12:11:53;;;;;;;8.40;3.17;;;;;;;;;;4978661;28;20030;-81
2021/10/02 12:14:51;;;;;;;7.88;3.15;;;;;;;;;;4941585;28;20463;-84
2021/10/02 12:17:36;;;;;;;8.32;3.65;;;;;;;;;;4934275;28;20106;-84
2021/10/02 12:20:05;;;;;;;;;;;;;;;;;;4936996;28;20570;-83
2021/10/02 12:25:56;;;;;;;8.70;3.20;;;;;;;;;;4874395;29;20045;-85
2021/10/02 12:29:00;;;;;;;8.00;3.13;;;;;;;;;;4888149;29;20041;-86
2021/10/02 12:34:42;;;;;;;7.00;2.90;;;;;;;;;;4905913;29;20124;-83
2021/10/02 12:37:26;;;;;;;8.48;3.20;;;;;;;;;;4918877;29;20020;-88
2021/10/02 12:39:55;;;;;;;7.32;2.90;;;;;;;;;;4949248;23;20046;-80
2021/10/02 12:42:33;;;;;;;7.28;2.95;;;;;;;;;;4978129;28;20033;-80
2021/10/02 12:45:13;;;;;;;8.25;3.25;;;;;;;;;;4949967;28;20079;-81
2021/10/02 12:47:40;;;;;;;7.70;3.70;;;;;;;;;;4973342;28;21112;-81
2021/10/02 12:50:12;;;;;;;5.95;2.80;;;;;;;;;;4993359;28;20037;-80
2021/10/02 12:52:41;;;;;;;8.10;3.97;;;;;;;;;;4967918;28;20124;-80
2021/10/02 12:55:13;;;;;;;7.97;3.08;;;;;;;;;;4996890;28;20047;-80
2021/10/02 12:57:46;;;;;;;7.43;3.10;;;;;;;;;;4992213;28;21996;-82
2021/10/02 13:00:18;;;;;;;7.47;3.75;;;;;;;;;;4982398;28;20132;-81
2021/10/02 13:02:52;;;;;;;8.38;4.15;;;;;;;;;;4980513;28;20099;-79
2021/10/02 13:05:21;;;;;;;8.70;4.60;;;;;;;;;;4966491;28;20123;-83
2021/10/02 13:07:51;;;;;;;7.60;3.92;;;;;;;;;;4978000;28;20033;-80
2021/10/02 13:10:22;;;;;;;7.82;4.20;;;;;;;;;;4999908;28;20025;-80
2021/10/02 13:12:56;;;;;;;9.63;4.10;;;;;;;;;;4978313;28;20056;-80
2021/10/02 13:15:32;;;;;;;8.95;4.45;;;;;;;;;;5001771;28;20036;-80
2021/10/02 13:18:24;;;;;;;9.57;4.03;;;;;;;;;;5007866;28;20050;-81
2021/10/02 13:20:52;;;;;;;9.32;5.20;;;;;;;;;;4999492;28;21624;-80
2021/10/02 13:23:23;;;;;;;9.13;5.00;;;;;;;;;;4982974;28;20033;-81
2021/10/02 13:25:49;;;;;;;8.13;4.70;;;;;;;;;;4968538;28;20894;-80
2021/10/02 13:28:22;;;;;;;9.32;5.57;;;;;;;;;;4976901;28;20054;-80
2021/10/02 13:30:51;;;;;;;9.05;5.00;;;;;;;;;;4971496;28;20039;-81
2021/10/02 13:33:19;;;;;;;10.25;5.15;;;;;;;;;;4992616;28;20033;-81
2021/10/02 13:35:58;;;;;;;10.60;5.85;;;;;;;;;;4990278;28;20986;-81
2021/10/02 13:38:35;;;;;;;10.15;5.63;;;;;;;;;;4978662;28;20030;-80
2021/10/02 13:41:04;;;;;;;9.88;5.65;;;;;;;;;;4993786;28;20041;-80
2021/10/02 13:43:30;;;;;;;9.32;5.88;;;;;;;;;;4966642;28;20042;-81
2021/10/02 13:45:58;;;;;;;9.73;5.93;;;;;;;;;;4975902;28;20030;-80
2021/10/02 13:48:29;;;;;;;11.18;6.38;;;;;;;;;;4977185;28;20070;-81
2021/10/02 13:50:58;;;;;;;12.27;6.15;;;;;;;;;;4995439;28;20526;-81
2021/10/02 13:53:27;;;;;;;11.48;6.20;;;;;;;;;;4979248;28;20060;-81
2021/10/02 13:55:54;;;;;;;9.55;5.57;;;;;;;;;;4967536;28;20097;-81
2021/10/02 13:58:20;;;;;;;9.95;5.50;;;;;;;;;;4976611;28;20935;-80
2021/10/02 14:00:46;;;;;;;11.27;5.90;;;;;;;;;;4974587;28;20042;-81
2021/10/02 14:03:13;;;;;;;11.35;5.80;;;;;;;;;;4976282;28;20025;-81
2021/10/02 14:05:40;;;;;;;10.25;5.75;;;;;;;;;;4992878;28;20057;-81
2021/10/02 14:08:06;;;;;;;18.25;10.15;;;;;;;;;;4972416;28;20115;-80
2021/10/02 14:10:33;;;;;;;12.18;6.50;;;;;;;;;;4990718;28;20440;-82
2021/10/02 14:13:00;;;;;;;10.70;6.15;;;;;;;;;;4980091;28;20033;-82
2021/10/02 14:15:28;;;;;;;10.27;5.50;;;;;;;;;;4997895;28;20030;-80
2021/10/02 14:17:54;;;;;;;9.32;5.13;;;;;;;;;;4990776;28;20026;-80
2021/10/02 14:20:24;;;;;;;9.77;5.25;;;;;;;;;;4993897;28;20045;-82
2021/10/02 14:22:50;;;;;;;8.63;4.90;;;;;;;;;;4971541;28;20041;-81
2021/10/02 14:25:18;;;;;;;10.48;5.13;;;;;;;;;;4997294;28;20110;-80
2021/10/02 14:27:44;;;;;;;8.93;5.00;;;;;;;;;;4991252;28;20033;-81
2021/10/02 14:30:11;;;;;;;10.35;5.28;;;;;;;;;;4976966;28;20029;-81
2021/10/02 14:32:39;;;;;;;9.77;5.22;;;;;;;;;;4990744;28;20061;-80
2021/10/02 14:35:06;;;;;;;10.10;5.68;;;;;;;;;;4968997;28;20049;-81
2021/10/02 14:37:32;;;;;;;9.35;5.75;;;;;;;;;;4970222;28;20057;-81
2021/10/02 14:39:59;;;;;;;10.15;5.53;;;;;;;;;;4983712;28;20045;-82
2021/10/02 14:42:26;;;;;;;9.25;5.53;;;;;;;;;;4994344;28;20379;-81
2021/10/02 14:44:54;;;;;;;11.10;6.00;;;;;;;;;;4982683;28;20463;-82
2021/10/02 14:47:22;;;;;;;10.85;5.72;;;;;;;;;;4978046;28;20049;-80
2021/10/02 14:49:48;;;;;;;10.07;5.97;;;;;;;;;;4992297;28;20069;-81
2021/10/02 14:52:15;;;;;;;13.27;6.55;;;;;;;;;;4982867;28;20087;-81
2021/10/02 14:54:43;;;;;;;11.13;6.40;;;;;;;;;;4977546;28;20025;-80
2021/10/02 14:57:10;;;;;;;10.68;6.10;;;;;;;;;;4977427;28;20048;-81
2021/10/02 14:59:37;;;;;;;10.27;6.03;;;;;;;;;;4977210;28;20116;-81
2021/10/02 15:02:05;;;;;;;11.40;6.90;;;;;;;;;;4979734;28;20034;-81
2021/10/02 15:04:42;;;;;;;10.43;6.43;;;;;;;;;;4998723;28;20534;-81
2021/10/02 15:07:08;;;;;;;9.35;5.80;;;;;;;;;;4982827;28;20073;-81
2021/10/02 15:09:36;;;;;;;11.30;6.68;;;;;;;;;;4995106;28;20124;-81
2021/10/02 15:12:04;;;;;;;9.45;5.78;;;;;;;;;;4966286;28;20099;-81
2021/10/02 15:14:32;;;;;;;11.30;6.63;;;;;;;;;;4972134;28;20037;-81
2021/10/02 15:17:00;;;;;;;11.38;6.72;;;;;;;;;;4991232;28;20442;-81
2021/10/02 15:19:26;;;;;;;9.95;6.43;;;;;;;;;;4972922;28;20061;-80
2021/10/02 15:22:00;;;;;;;9.98;6.20;;;;;;;;;;4987469;28;20088;-81
2021/10/02 15:24:49;;;;;;;9.95;6.18;;;;;;;;;;4991273;28;20073;-80
2021/10/02 15:27:25;;;;;;;9.90;5.90;;;;;;;;;;4972549;28;20065;-81
2021/10/02 15:29:55;;;;;;;11.50;6.30;;;;;;;;;;4972746;28;20049;-81
2021/10/02 15:32:22;;;;;;;10.98;6.20;;;;;;;;;;4989176;28;20579;-82
2021/10/02 15:34:52;;;;;;;10.07;5.95;;;;;;;;;;4970853;28;20072;-80
2021/10/02 15:37:19;;;;;;;11.63;6.13;;;;;;;;;;4977493;28;20060;-81
2021/10/02 15:39:47;;;;;;;10.43;6.30;;;;;;;;;;4974630;28;20089;-82
2021/10/02 15:42:13;;;;;;;9.57;6.20;;;;;;;;;;4960643;28;20732;-82
2021/10/02 15:44:40;;;;;;;9.68;5.82;;;;;;;;;;4956197;28;20094;-82
2021/10/02 15:47:07;;;;;;;10.98;6.60;;;;;;;;;;4980358;28;20534;-83
2021/10/02 15:49:38;;;;;;;10.82;6.25;;;;;;;;;;4950589;28;20496;-82
2021/10/02 15:52:05;;;;;;;10.82;6.40;;;;;;;;;;4958425;28;22152;-81
2021/10/02 15:54:33;;;;;;;10.27;6.78;;;;;;;;;;4966059;28;20050;-81
2021/10/02 15:57:03;;;;;;;9.27;5.43;;;;;;;;;;4974678;28;20403;-81
2021/10/02 15:59:33;;;;;;;10.65;6.45;;;;;;;;;;4970732;28;20061;-81